Time;durP1;ratioP1;P1;durP2;ratioP2;P2;SDS_P1;SDS_P2;PMS_P1;PMS_P2;Temp;Humidity;BMP_temperature;BMP_pressure;BME280_temperature;BME280_humidity;BME280_pressure;Samples;Min_cycle;Max_cycle;Signal;HPM_P1;HPM_P2
2022/06/28 00:01:28;;;;;;;13.33;8.57;;;;;;;19.10;89.12;98904.31;5051217;28;20756;-87
2022/06/28 00:03:53;;;;;;;10.17;8.87;;;;;;;19.61;88.16;98984.03;5050538;28;20609;-87
2022/06/28 00:06:19;;;;;;;10.77;8.90;;;;;;;20.35;87.96;99101.44;5052780;28;20554;-88
2022/06/28 00:08:44;;;;;;;9.90;8.33;;;;;;;18.79;87.25;98860.66;5051588;28;20228;-90
2022/06/28 00:11:09;;;;;;;9.73;8.43;;;;;;;19.56;87.55;98961.75;5053062;28;21388;-88
2022/06/28 00:13:35;;;;;;;11.30;8.30;;;;;;;20.31;88.70;99118.56;5052976;28;20758;-90
2022/06/28 00:16:06;;;;;;;11.23;8.77;;;;;;;20.00;89.41;99088.50;5053691;28;20172;-90
2022/06/28 00:18:37;;;;;;;10.33;7.97;;;;;;;18.91;90.01;98893.16;5051320;28;20165;-90
2022/06/28 00:21:06;;;;;;;10.93;8.73;;;;;;;18.99;89.55;98903.44;5053380;28;20164;-90
2022/06/28 00:23:32;;;;;;;11.83;8.33;;;;;;;21.48;89.10;99314.97;5061107;28;20171;-88
2022/06/28 00:25:57;;;;;;;9.60;8.03;;;;;;;19.98;89.00;99077.38;5056701;28;20261;-89
2022/06/28 00:28:23;;;;;;;10.03;7.73;;;;;;;18.19;88.98;98806.59;5056225;28;20204;-89
2022/06/28 00:30:48;;;;;;;12.40;8.57;;;;;;;18.80;88.72;98879.47;5057551;28;20165;-88
2022/06/28 00:33:14;;;;;;;10.47;8.10;;;;;;;19.57;88.19;98997.69;5056890;28;20268;-88
2022/06/28 00:35:40;;;;;;;11.80;8.20;;;;;;;21.50;87.06;99302.09;5057045;28;20244;-89
2022/06/28 00:38:05;;;;;;;13.10;8.83;;;;;;;18.03;86.18;98692.13;5058702;28;20170;-89
2022/06/28 00:40:32;;;;;;;12.30;9.20;;;;;;;21.50;87.12;99277.19;5055415;28;20178;-88
2022/06/28 00:42:58;;;;;;;13.73;8.87;;;;;;;18.86;87.78;98874.34;5056342;28;20706;-89
2022/06/28 00:45:25;;;;;;;13.00;9.27;;;;;;;19.02;88.64;98888.91;5056454;28;20263;-86
2022/06/28 00:47:51;;;;;;;14.03;9.17;;;;;;;19.79;89.73;99037.09;5057036;28;20166;-89
2022/06/28 00:50:18;;;;;;;12.70;9.10;;;;;;;19.40;90.52;98969.44;5055404;28;20672;-90
2022/06/28 00:53:04;;;;;;;12.00;9.57;;;;;;;19.70;89.93;98993.41;5056216;28;20219;-90
2022/06/28 00:55:30;;;;;;;12.23;9.00;;;;;;;21.30;89.82;99263.47;5056259;28;20248;-90
2022/06/28 00:57:56;;;;;;;11.20;8.37;;;;;;;19.21;89.30;98915.47;5054851;28;20236;-86
2022/06/28 01:00:21;;;;;;;11.13;8.63;;;;;;;21.39;89.13;99275.50;5055355;28;20172;-88
2022/06/28 01:02:47;;;;;;;10.33;9.20;;;;;;;19.11;90.53;98989.03;5054881;28;20177;-86
2022/06/28 01:05:13;;;;;;;12.10;9.40;;;;;;;18.18;91.43;98818.53;5054680;28;20162;-86
2022/06/28 01:07:38;;;;;;;12.43;9.10;;;;;;;20.58;91.78;99223.16;5054691;28;20158;-87
2022/06/28 01:10:04;;;;;;;11.10;9.20;;;;;;;18.98;93.65;99023.16;5054741;28;20227;-86
2022/06/28 01:12:29;;;;;;;12.27;9.53;;;;;;;18.09;92.83;98825.34;5054698;28;20568;-86
2022/06/28 01:14:55;;;;;;;16.53;9.93;;;;;;;18.98;92.49;99020.59;5054617;28;20203;-87
2022/06/28 01:17:20;;;;;;;10.40;9.17;;;;;;;19.89;95.08;99157.00;5054459;28;20622;-86
2022/06/28 01:19:46;;;;;;;14.03;9.70;;;;;;;18.38;94.24;98894.66;5054574;28;20170;-84
2022/06/28 01:22:11;;;;;;;14.70;9.23;;;;;;;17.24;92.51;98680.66;5054266;28;20185;-86
2022/06/28 01:24:37;;;;;;;12.17;9.50;;;;;;;20.15;93.19;99181.06;5053017;28;20242;-86
2022/06/28 01:27:04;;;;;;;12.80;9.20;;;;;;;19.17;91.15;98976.19;5054427;28;20173;-88
2022/06/28 01:29:31;;;;;;;13.17;9.73;;;;;;;17.75;90.79;98744.94;5067968;28;20169;-85
2022/06/28 01:31:56;;;;;;;11.90;9.53;;;;;;;19.71;91.05;99056.78;5073314;28;20170;-89
2022/06/28 01:34:23;;;;;;;12.40;10.20;;;;;;;19.53;90.90;99021.66;5054822;28;20204;-89
2022/06/28 01:36:48;;;;;;;11.97;9.77;;;;;;;18.30;92.53;98874.13;5053137;28;20169;-89
2022/06/28 01:39:14;;;;;;;12.00;9.87;;;;;;;18.71;94.18;98987.13;5054370;28;20165;-88
2022/06/28 01:41:40;;;;;;;10.70;9.60;;;;;;;19.86;94.89;99195.56;5054238;28;20170;-87
2022/06/28 01:44:08;;;;;;;12.30;9.23;;;;;;;18.02;93.80;98879.97;5052645;28;20227;-89
2022/06/28 01:46:37;;;;;;;10.93;9.03;;;;;;;18.19;94.33;98924.47;5053975;28;20166;-89
2022/06/28 01:49:04;;;;;;;11.40;9.00;;;;;;;18.12;94.58;98915.91;5053846;28;20257;-89
2022/06/28 01:51:29;;;;;;;12.00;9.13;;;;;;;19.60;93.53;99153.50;5054263;28;20170;-87
2022/06/28 01:53:55;;;;;;;13.53;9.40;;;;;;;18.53;93.34;98976.78;5053568;28;20338;-88
2022/06/28 01:56:21;;;;;;;10.73;8.97;;;;;;;18.49;93.71;98978.47;5053208;28;20170;-87
2022/06/28 01:58:46;;;;;;;10.43;9.07;;;;;;;20.49;92.97;99306.28;5053213;28;20166;-88
2022/06/28 02:01:12;;;;;;;10.77;9.03;;;;;;;18.57;93.04;98965.72;5053620;28;20188;-88
2022/06/28 02:03:37;;;;;;;10.47;9.30;;;;;;;19.20;92.68;99071.16;5054398;28;20166;-88
2022/06/28 02:06:03;;;;;;;10.20;8.67;;;;;;;18.63;92.77;98999.06;5053584;28;20166;-89
2022/06/28 02:08:28;;;;;;;12.27;8.80;;;;;;;17.93;93.31;98882.47;5053311;28;20270;-88
2022/06/28 02:10:58;;;;;;;12.43;9.33;;;;;;;18.65;92.95;99005.06;5053455;28;20650;-90
2022/06/28 02:13:24;;;;;;;10.77;8.40;;;;;;;20.50;93.35;99307.16;5054355;28;20193;-90
2022/06/28 02:15:49;;;;;;;11.23;9.37;;;;;;;18.54;92.23;98930.66;5055841;28;20170;-88
2022/06/28 02:18:14;;;;;;;10.90;9.40;;;;;;;18.27;90.63;98845.91;5054372;28;20169;-90
2022/06/28 02:20:40;;;;;;;12.07;9.10;;;;;;;18.55;89.52;98880.22;5053523;28;20172;-90
2022/06/28 02:23:05;;;;;;;10.70;9.07;;;;;;;17.69;89.63;98773.94;5053400;28;20703;-89
2022/06/28 02:25:31;;;;;;;12.70;9.20;;;;;;;18.36;89.51;98853.66;5053800;28;20252;-88
2022/06/28 02:27:56;;;;;;;10.93;8.90;;;;;;;18.44;88.98;98876.75;5052045;28;20204;-89
2022/06/28 02:30:21;;;;;;;12.00;9.30;;;;;;;20.89;90.31;99307.22;5052581;28;20253;-89
2022/06/28 02:32:47;;;;;;;12.27;9.27;;;;;;;20.20;89.84;99189.63;5052632;28;20560;-87
2022/06/28 02:40:41;;;;;;;13.10;9.40;;;;;;;19.88;89.76;99139.91;5052799;28;20172;-88
2022/06/28 02:43:06;;;;;;;11.97;9.20;;;;;;;20.75;90.93;99316.66;5050923;28;20551;-88
2022/06/28 02:45:34;;;;;;;11.27;9.07;;;;;;;20.64;91.35;99320.06;5051131;28;20568;-88
2022/06/28 02:48:00;;;;;;;10.40;8.80;;;;;;;20.55;91.60;99311.47;5053284;28;20165;-88
2022/06/28 02:50:26;;;;;;;11.40;9.13;;;;;;;20.14;90.85;99235.91;5051296;28;20173;-87
2022/06/28 02:52:52;;;;;;;11.40;9.47;;;;;;;19.28;91.14;99099.44;5051165;28;20166;-88
2022/06/28 02:55:17;;;;;;;13.43;8.77;;;;;;;17.38;90.83;98773.72;5052489;28;20229;-87
2022/06/28 02:57:44;;;;;;;13.47;9.17;;;;;;;20.52;91.74;99306.31;5052643;28;20219;-88
2022/06/28 03:00:13;;;;;;;11.97;9.33;;;;;;;17.39;91.95;98795.88;5052718;28;20254;-89
2022/06/28 03:02:40;;;;;;;11.87;9.40;;;;;;;20.09;92.39;99229.88;5051861;28;20591;-88
2022/06/28 03:05:08;;;;;;;12.37;10.20;;;;;;;20.47;93.15;99330.28;5052561;28;20224;-89
2022/06/28 03:07:34;;;;;;;13.93;10.23;;;;;;;20.44;93.28;99326.00;5052911;28;20261;-91
2022/06/28 03:09:59;;;;;;;14.90;9.97;;;;;;;18.04;92.93;98909.88;5052911;28;20256;-87
2022/06/28 03:12:25;;;;;;;15.50;10.33;;;;;;;20.46;93.23;99321.72;5052071;28;20169;-86
2022/06/28 03:14:51;;;;;;;15.63;10.17;;;;;;;19.50;92.96;99157.75;5051837;28;20205;-87
2022/06/28 03:17:16;;;;;;;15.53;9.90;;;;;;;18.63;93.26;98999.06;5052062;28;20652;-87
2022/06/28 03:19:42;;;;;;;13.57;9.90;;;;;;;19.96;93.60;99225.56;5050419;28;20166;-87
2022/06/28 03:22:07;;;;;;;14.07;9.77;;;;;;;18.46;93.08;98972.47;5051992;28;20234;-85
2022/06/28 03:24:33;;;;;;;16.17;10.10;;;;;;;18.98;92.96;99063.38;5052067;28;20162;-86
2022/06/28 03:26:58;;;;;;;12.80;10.40;;;;;;;18.62;91.93;98971.72;5051748;28;20166;-87
2022/06/28 03:29:24;;;;;;;10.93;9.60;;;;;;;19.92;92.56;99188.72;5051739;28;20259;-87
2022/06/28 03:31:49;;;;;;;14.50;10.13;;;;;;;20.44;91.94;99277.13;5052006;28;20307;-88
2022/06/28 03:34:16;;;;;;;14.03;9.77;;;;;;;18.24;90.90;98867.25;5051742;28;20201;-88
2022/06/28 03:36:41;;;;;;;12.47;9.17;;;;;;;18.95;91.94;99036.00;5051880;28;20169;-87
2022/06/28 03:39:07;;;;;;;12.23;10.00;;;;;;;18.18;91.23;98872.34;5052051;28;20180;-87
2022/06/28 03:41:32;;;;;;;13.67;9.50;;;;;;;20.93;90.71;99306.38;5063331;28;20216;-87
2022/06/28 03:43:58;;;;;;;15.93;9.67;;;;;;;17.75;89.88;98757.75;5077537;28;20188;-89
2022/06/28 03:46:23;;;;;;;13.53;9.50;;;;;;;19.78;88.59;99077.34;5066970;28;20185;-91
2022/06/28 03:48:49;;;;;;;12.47;9.70;;;;;;;20.96;86.60;99246.31;5061261;28;20260;-88
2022/06/28 03:51:15;;;;;;;13.37;9.20;;;;;;;20.80;85.59;99180.25;5065024;28;20177;-85
2022/06/28 03:53:41;;;;;;;13.10;9.17;;;;;;;20.61;85.10;99164.00;5073512;28;20212;-86
2022/06/28 03:56:07;;;;;;;16.10;9.43;;;;;;;21.68;84.55;99313.22;5052955;28;20207;-87
2022/06/28 03:58:36;;;;;;;12.13;8.90;;;;;;;19.31;84.29;98924.91;5050526;28;20610;-90
2022/06/28 04:01:02;;;;;;;9.97;8.40;;;;;;;21.02;84.34;99228.28;5050606;28;20180;-88
2022/06/28 04:03:28;;;;;;;11.37;9.27;;;;;;;21.80;83.66;99316.63;5051670;28;20248;-89
2022/06/28 04:05:53;;;;;;;11.47;8.77;;;;;;;19.54;83.94;98963.44;5051358;28;20171;-91
2022/06/28 04:08:19;;;;;;;12.47;9.00;;;;;;;19.31;81.95;98864.13;5052889;28;20213;-93
2022/06/28 04:10:45;;;;;;;14.10;8.37;;;;;;;21.85;81.02;99278.81;5052182;28;20238;-93
2022/06/28 04:13:10;;;;;;;12.33;8.67;;;;;;;19.84;80.22;98943.78;5053046;28;20204;-92
2022/06/28 04:15:37;;;;;;;15.77;9.40;;;;;;;19.09;79.74;98810.25;5053391;28;20554;-94
2022/06/28 04:18:04;;;;;;;11.00;8.40;;;;;;;19.49;79.31;98876.16;5053441;28;20173;-91
2022/06/28 04:20:30;;;;;;;12.07;8.53;;;;;;;19.65;79.17;98920.66;5052742;28;20176;-93
2022/06/28 04:22:55;;;;;;;11.30;8.17;;;;;;;19.58;79.14;98895.84;5034528;28;20681;-86
2022/06/28 04:25:21;;;;;;;9.30;7.57;;;;;;;21.20;78.53;99174.25;5049918;28;20181;-90
2022/06/28 04:27:46;;;;;;;9.10;7.90;;;;;;;21.30;77.98;99173.34;5049404;28;20184;-89
2022/06/28 04:30:12;;;;;;;10.93;8.23;;;;;;;21.83;77.98;99276.25;5050022;28;20259;-90
2022/06/28 04:32:38;;;;;;;10.43;8.10;;;;;;;21.17;77.74;99133.91;5050391;28;20180;-88
2022/06/28 04:35:03;;;;;;;9.13;7.93;;;;;;;20.73;76.62;99031.91;5051188;28;20212;-87
2022/06/28 04:37:29;;;;;;;10.67;7.73;;;;;;;22.10;74.73;99213.41;5050775;28;20246;-89
2022/06/28 04:39:54;;;;;;;13.23;7.97;;;;;;;22.31;73.61;99255.41;5053760;28;20189;-91
2022/06/28 04:42:20;;;;;;;9.83;7.80;;;;;;;20.42;71.26;98882.84;5054166;28;20246;-90
2022/06/28 04:44:45;;;;;;;8.57;7.33;;;;;;;23.40;70.54;99323.53;5072110;28;20185;-90
2022/06/28 04:47:11;;;;;;;13.73;7.60;;;;;;;23.49;70.12;99326.00;5070265;28;20199;-90
2022/06/28 04:49:37;;;;;;;11.67;7.63;;;;;;;23.45;70.87;99326.94;5069363;28;20184;-90
2022/06/28 04:52:09;;;;;;;10.03;7.47;;;;;;;22.96;70.02;99255.88;5073450;28;20196;-92
2022/06/28 04:54:35;;;;;;;17.93;8.73;;;;;;;23.43;70.53;99334.69;5076081;28;20228;-93
2022/06/28 04:57:00;;;;;;;13.63;8.43;;;;;;;23.08;70.33;99286.72;5072683;28;20195;-91
2022/06/28 04:59:26;;;;;;;13.10;9.13;;;;;;;23.39;70.25;99345.94;5075780;28;20279;-92
2022/06/28 05:01:51;;;;;;;18.80;11.67;;;;;;;22.03;70.07;99106.03;5076247;28;20196;-93
2022/06/28 05:04:17;;;;;;;14.30;9.77;;;;;;;22.62;70.58;99222.53;5072886;28;20212;-91
2022/06/28 05:06:42;;;;;;;13.30;9.87;;;;;;;22.88;69.67;99230.94;5071620;28;20189;-92
2022/06/28 05:09:08;;;;;;;13.93;10.57;;;;;;;22.41;69.41;99105.75;5076539;28;20748;-91
2022/06/28 05:11:33;;;;;;;19.27;9.63;;;;;;;23.58;68.52;99232.03;5073525;28;20188;-92
2022/06/28 05:13:59;;;;;;;23.50;10.07;;;;;;;24.26;68.02;99322.59;5074135;28;20699;-93
2022/06/28 05:16:25;;;;;;;20.07;10.27;;;;;;;24.35;67.86;99321.63;5063491;28;20192;-90
2022/06/28 05:18:51;;;;;;;18.37;10.97;;;;;;;23.17;66.91;99041.28;5054638;28;20185;-91
2022/06/28 05:21:16;;;;;;;22.37;10.73;;;;;;;24.13;67.68;99247.75;5056425;28;20185;-91
2022/06/28 05:23:45;;;;;;;31.07;16.07;;;;;;;22.29;69.10;98993.22;5026637;28;20222;-92
2022/06/28 05:26:13;;;;;;;11.60;9.87;;;;;;;23.07;69.17;99120.63;5034665;28;20181;-93
2022/06/28 05:28:39;;;;;;;13.43;9.00;;;;;;;22.40;68.66;99021.47;5032306;28;20209;-91
2022/06/28 05:31:04;;;;;;;11.20;9.50;;;;;;;22.95;68.68;99106.97;5035654;28;20185;-89
2022/06/28 05:33:30;;;;;;;15.37;9.30;;;;;;;23.93;67.82;99204.88;5033075;28;21695;-91
2022/06/28 05:35:56;;;;;;;11.47;9.50;;;;;;;24.61;69.75;99361.81;5030374;28;20182;-89
2022/06/28 05:38:21;;;;;;;12.97;9.70;;;;;;;24.63;70.05;99365.28;5031299;28;20201;-89
2022/06/28 05:40:47;;;;;;;12.63;9.10;;;;;;;24.30;68.75;99276.84;5035290;28;20189;-91
2022/06/28 05:43:15;;;;;;;16.63;9.90;;;;;;;22.98;67.18;99017.41;5035003;28;20186;-88
2022/06/28 05:45:40;;;;;;;16.67;13.80;;;;;;;24.57;69.69;99342.03;5034597;28;20182;-92
2022/06/28 05:48:06;;;;;;;17.87;13.47;;;;;;;23.04;68.25;99052.66;5033014;28;20190;-90
2022/06/28 05:50:31;;;;;;;13.77;11.40;;;;;;;23.63;68.15;99135.47;5032161;28;20182;-89
2022/06/28 05:52:57;;;;;;;15.57;10.97;;;;;;;24.32;68.17;99270.78;5031615;28;20182;-88
2022/06/28 05:55:22;;;;;;;23.20;17.97;;;;;;;23.72;68.21;99152.56;5031081;28;20209;-89
2022/06/28 05:57:47;;;;;;;19.50;15.17;;;;;;;23.62;68.30;99126.00;5032079;28;20190;-90
2022/06/28 06:00:14;;;;;;;18.73;14.67;;;;;;;24.59;67.41;99235.88;5034136;28;20178;-89
2022/06/28 06:02:40;;;;;;;17.83;12.93;;;;;;;25.33;65.61;99281.28;5032107;28;20194;-88
2022/06/28 06:05:06;;;;;;;15.43;11.70;;;;;;;25.25;64.84;99220.97;5033609;28;20732;-90
2022/06/28 06:07:32;;;;;;;16.63;10.80;;;;;;;25.21;62.38;99116.53;5033612;28;20196;-89
2022/06/28 06:09:57;;;;;;;14.00;9.30;;;;;;;26.01;60.74;99286.97;5037291;28;20717;-89
2022/06/28 06:12:23;;;;;;;14.57;8.57;;;;;;;25.02;61.22;99146.28;5038694;28;20193;-90
2022/06/28 06:14:48;;;;;;;16.33;8.47;;;;;;;24.94;59.04;99122.22;5052427;28;20203;-90
2022/06/28 06:17:14;;;;;;;11.83;7.57;;;;;;;25.58;58.45;99224.69;5045463;28;20198;-92
2022/06/28 06:19:40;;;;;;;13.45;7.88;;;;;;;26.32;57.27;99281.13;5036324;28;20277;-86
2022/06/28 06:22:06;;;;;;;13.40;7.88;;;;;;;25.75;56.65;99158.63;5022158;28;20296;-90
2022/06/28 06:24:31;;;;;;;10.57;6.93;;;;;;;26.43;55.80;99264.44;5036346;28;20183;-90
2022/06/28 06:26:57;;;;;;;10.57;7.35;;;;;;;25.84;54.14;99102.25;5035310;28;20274;-87
2022/06/28 06:29:22;;;;;;;9.30;6.93;;;;;;;26.94;54.33;99341.22;5032016;28;20244;-85
2022/06/28 06:31:47;;;;;;;11.48;7.20;;;;;;;26.46;53.21;99228.00;5031993;28;20185;-85
2022/06/28 06:34:14;;;;;;;8.55;6.88;;;;;;;26.54;52.31;99260.72;5030608;28;20690;-87
2022/06/28 06:36:40;;;;;;;8.82;7.25;;;;;;;26.52;53.44;99248.66;5033173;28;20199;-92
2022/06/28 06:39:05;;;;;;;10.63;7.40;;;;;;;27.56;52.50;99336.25;5034687;28;20196;-92
2022/06/28 06:41:31;;;;;;;10.23;7.78;;;;;;;26.42;53.17;99179.66;5051617;28;20669;-89
2022/06/28 06:43:56;;;;;;;9.43;7.38;;;;;;;26.44;52.00;99134.59;5042108;28;20245;-90
2022/06/28 06:46:22;;;;;;;10.18;7.68;;;;;;;27.26;52.59;99314.44;5033139;28;20701;-89
2022/06/28 06:48:47;;;;;;;14.23;7.45;;;;;;;26.64;53.18;99199.03;5024856;28;20203;-89
2022/06/28 06:51:13;;;;;;;13.05;7.63;;;;;;;25.95;54.51;99106.31;5012629;28;20204;-90
2022/06/28 06:53:38;;;;;;;11.65;8.00;;;;;;;26.72;56.25;99277.63;5023085;28;20419;-92
2022/06/28 06:56:04;;;;;;;9.10;8.07;;;;;;;25.71;55.07;99049.81;5031547;28;20196;-90
2022/06/28 06:58:29;;;;;;;11.73;8.77;;;;;;;26.61;54.83;99163.59;5029532;28;20664;-88
2022/06/28 07:00:55;;;;;;;11.57;8.10;;;;;;;25.16;54.24;98905.88;5028875;28;20201;-90
2022/06/28 07:03:20;;;;;;;13.15;8.50;;;;;;;24.51;54.13;98826.16;5035154;28;20218;-89
2022/06/28 07:05:46;;;;;;;12.75;8.60;;;;;;;26.90;53.94;99170.69;5047484;28;20184;-89
2022/06/28 07:08:12;;;;;;;12.50;8.20;;;;;;;26.22;53.89;99108.31;5067573;28;20230;-90
2022/06/28 07:10:37;;;;;;;11.80;8.65;;;;;;;28.00;53.62;99348.94;5050677;28;20194;-86
2022/06/28 07:13:03;;;;;;;12.68;8.70;;;;;;;27.40;51.98;99192.72;5033352;28;20646;-86
2022/06/28 07:15:28;;;;;;;15.88;8.70;;;;;;;28.98;49.89;99326.97;5028736;28;20203;-84
2022/06/28 07:17:55;;;;;;;13.85;8.98;;;;;;;28.43;49.99;99193.16;5030830;28;20214;-86
2022/06/28 07:20:20;;;;;;;12.10;8.30;;;;;;;29.35;49.23;99337.91;5032241;28;20181;-88
2022/06/28 07:22:46;;;;;;;15.25;8.90;;;;;;;28.79;49.15;99216.38;5018341;28;20226;-87
2022/06/28 07:25:13;;;;;;;10.63;8.77;;;;;;;28.91;49.66;99249.84;5040374;28;20662;-88
2022/06/28 07:27:39;;;;;;;15.63;9.07;;;;;;;27.69;49.86;99091.31;5052347;28;20196;-89
2022/06/28 07:30:05;;;;;;;14.73;9.10;;;;;;;28.37;49.88;99179.50;5043094;28;20197;-90
2022/06/28 07:32:30;;;;;;;14.52;8.82;;;;;;;28.31;50.34;99261.28;5046601;28;20627;-89
2022/06/28 07:34:55;;;;;;;12.15;10.00;;;;;;;28.32;50.09;99264.72;5044914;28;20213;-88
2022/06/28 07:37:22;;;;;;;12.88;8.57;;;;;;;28.14;49.52;99194.97;5041680;28;20177;-90
2022/06/28 07:39:47;;;;;;;10.20;8.00;;;;;;;27.93;50.60;99186.91;5053210;28;20187;-88
2022/06/28 07:42:13;;;;;;;10.80;8.20;;;;;;;29.05;49.97;99326.72;5044612;28;20278;-89
2022/06/28 07:44:38;;;;;;;9.07;7.03;;;;;;;28.55;48.06;99184.97;5040083;28;20676;-88
2022/06/28 07:47:03;;;;;;;10.93;7.93;;;;;;;29.91;47.30;99324.72;5041117;28;20235;-87
2022/06/28 07:52:33;;;;;;;15.57;8.10;;;;;;;28.65;48.04;99168.16;5035579;28;20177;-88
2022/06/28 07:54:58;;;;;;;8.52;7.50;;;;;;;29.67;45.30;99178.47;5029962;28;20645;-88
2022/06/28 07:57:24;;;;;;;7.60;6.68;;;;;;;30.18;42.95;99211.38;5030707;28;20402;-88
2022/06/28 07:59:49;;;;;;;9.57;6.72;;;;;;;31.11;40.83;99340.16;5030476;28;20871;-89
2022/06/28 08:02:17;;;;;;;10.23;6.20;;;;;;;30.72;41.31;99244.97;5030740;28;20254;-92
2022/06/28 08:04:51;;;;;;;11.35;6.00;;;;;;;30.11;41.02;99179.41;5031427;28;20179;-92
2022/06/28 08:07:17;;;;;;;7.78;5.90;;;;;;;31.21;42.06;99374.63;5034285;28;20192;-91
2022/06/28 08:09:42;;;;;;;7.40;6.47;;;;;;;28.41;41.20;98872.00;5033692;28;20228;-88
2022/06/28 08:12:08;;;;;;;6.72;6.03;;;;;;;31.08;40.60;99284.47;5029122;28;20195;-88
2022/06/28 08:14:34;;;;;;;9.35;6.13;;;;;;;31.40;39.74;99265.66;5037067;28;20292;-92
2022/06/28 08:17:00;;;;;;;6.65;5.82;;;;;;;31.27;38.96;99180.75;5043722;28;20200;-92
2022/06/28 08:19:25;;;;;;;8.10;5.85;;;;;;;30.77;38.92;99131.44;5041354;28;20252;-92
2022/06/28 08:21:51;;;;;;;7.28;6.22;;;;;;;31.91;38.92;99343.75;5041528;28;20186;-92
2022/06/28 08:24:17;;;;;;;7.35;5.85;;;;;;;30.20;37.81;98954.44;5031924;28;20240;-92
2022/06/28 08:26:43;;;;;;;6.95;6.10;;;;;;;29.36;37.85;98819.69;5045196;28;20256;-92
2022/06/28 08:29:10;;;;;;;6.95;5.85;;;;;;;30.76;38.63;99053.94;5043271;28;20713;-91
2022/06/28 08:31:36;;;;;;;8.57;5.93;;;;;;;32.49;38.12;99339.38;5041270;28;20661;-91
2022/06/28 08:34:02;;;;;;;6.78;6.18;;;;;;;32.10;38.63;99340.28;5043839;28;20216;-92
2022/06/28 08:36:28;;;;;;;8.68;6.35;;;;;;;31.53;37.44;99162.19;5055912;28;20180;-91
2022/06/28 08:38:53;;;;;;;7.95;6.10;;;;;;;32.65;37.06;99343.88;5054333;28;20197;-91
2022/06/28 08:41:20;;;;;;;7.85;6.10;;;;;;;31.72;37.73;99157.81;5043276;28;20696;-94
2022/06/28 08:43:45;;;;;;;7.85;6.28;;;;;;;31.00;38.06;99086.03;5041944;28;20217;-92
2022/06/28 08:46:11;;;;;;;13.85;6.32;;;;;;;31.58;39.02;99248.34;5043489;28;20745;-93
2022/06/28 08:48:43;;;;;;;9.00;6.45;;;;;;;30.56;37.79;99064.41;5036702;28;20257;-92
2022/06/28 08:51:10;;;;;;;9.20;6.10;;;;;;;32.59;38.12;99338.91;5035919;28;20181;-92
2022/06/28 08:53:38;;;;;;;7.30;6.10;;;;;;;32.98;37.39;99332.69;5049601;28;20208;-91
2022/06/28 08:56:05;;;;;;;8.38;6.00;;;;;;;33.04;37.30;99348.13;5029728;28;20215;-92
2022/06/28 08:58:33;;;;;;;8.10;6.65;;;;;;;32.55;36.84;99205.44;5035449;28;20204;-88
2022/06/28 09:01:02;;;;;;;9.18;6.03;;;;;;;33.25;36.33;99295.47;5049278;28;20245;-92
2022/06/28 09:03:28;;;;;;;8.00;6.15;;;;;;;32.71;36.21;99168.81;5044101;28;20182;-92
2022/06/28 09:05:53;;;;;;;8.38;6.43;;;;;;;34.29;35.83;99346.13;5038739;28;20184;-90
2022/06/28 09:08:19;;;;;;;8.57;6.38;;;;;;;33.20;35.51;99245.00;5036436;28;20234;-91
2022/06/28 09:10:45;;;;;;;8.07;6.03;;;;;;;32.07;35.03;99041.75;5034489;28;20260;-90
2022/06/28 09:13:14;;;;;;;6.70;6.10;;;;;;;31.94;34.64;98985.63;5041191;28;20178;-92
2022/06/28 09:15:53;;;;;;;9.50;6.10;;;;;;;33.77;34.74;99337.47;5043625;28;20269;-91
2022/06/28 09:18:26;;;;;;;8.02;6.00;;;;;;;33.17;34.69;99233.78;5020946;28;20261;-91
2022/06/28 09:20:55;;;;;;;6.90;6.10;;;;;;;33.98;33.80;99223.34;5036651;28;20198;-90
2022/06/28 09:23:29;;;;;;;6.72;6.03;;;;;;;33.97;34.55;99334.66;5039131;28;20190;-91
2022/06/28 09:25:57;;;;;;;8.32;6.00;;;;;;;31.97;35.68;99095.50;5040153;28;20249;-92
2022/06/28 09:28:28;;;;;;;8.35;6.05;;;;;;;32.95;35.39;99256.75;5038127;28;20186;-90
2022/06/28 09:31:16;;;;;;;9.48;6.18;;;;;;;34.16;35.65;99340.69;5037282;28;20281;-92
2022/06/28 09:34:05;;;;;;;9.18;5.80;;;;;;;32.75;34.50;99152.81;5043303;28;20261;-91
2022/06/28 09:36:42;;;;;;;9.32;6.57;;;;;;;32.11;35.68;99168.22;5002405;28;20195;-91
2022/06/28 09:39:28;;;;;;;7.60;6.55;;;;;;;33.39;35.64;99338.56;4987077;28;20219;-92
2022/06/28 09:41:57;;;;;;;9.52;6.43;;;;;;;32.45;34.86;99135.97;4998292;28;20219;-90
2022/06/28 09:44:29;;;;;;;7.90;6.20;;;;;;;34.39;34.37;99334.19;4981244;28;20202;-90
2022/06/28 09:46:57;;;;;;;8.32;6.32;;;;;;;34.79;34.21;99343.38;4982156;28;20223;-92
2022/06/28 09:49:29;;;;;;;7.65;6.20;;;;;;;34.33;34.42;99188.13;4997250;28;20195;-92
2022/06/28 09:51:57;;;;;;;7.95;6.07;;;;;;;34.47;34.19;99189.13;4982139;28;20187;-92
2022/06/28 09:54:27;;;;;;;6.88;5.28;;;;;;;35.17;32.55;99242.03;4979350;28;20227;-90
2022/06/28 09:56:54;;;;;;;7.78;5.70;;;;;;;36.03;31.67;99336.13;4969401;28;20254;-92
2022/06/28 09:59:21;;;;;;;8.52;5.90;;;;;;;34.48;32.26;99083.00;4981731;28;20225;-90
2022/06/28 10:01:48;;;;;;;6.38;5.70;;;;;;;35.75;32.55;99346.59;4983929;28;20202;-91
2022/06/28 10:04:18;;;;;;;7.63;5.97;;;;;;;34.59;32.84;99239.28;4978929;28;20199;-91
2022/06/28 10:06:44;;;;;;;9.43;6.05;;;;;;;33.53;34.05;99136.53;4992378;28;20202;-92
2022/06/28 10:09:10;;;;;;;7.65;6.25;;;;;;;33.05;34.49;99117.19;5015110;28;20753;-90
2022/06/28 10:17:34;;;;;;;9.20;6.28;;;;;;;34.09;34.94;99334.03;5051540;28;20196;-87
2022/06/28 10:20:03;;;;;;;8.55;5.57;;;;;;;32.29;35.39;98983.03;5049105;28;20580;-87
2022/06/28 10:22:29;;;;;;;9.00;6.40;;;;;;;33.80;34.57;99172.69;5051921;28;20228;-90
2022/06/28 10:24:57;;;;;;;10.10;5.35;;;;;;;33.79;34.53;99227.91;5056372;28;20227;-88
2022/06/28 10:27:23;;;;;;;6.63;5.70;;;;;;;33.92;35.68;99294.66;5039011;28;20181;-89
2022/06/28 10:29:57;;;;;;;7.68;5.70;;;;;;;34.71;34.86;99324.53;5037745;28;20189;-90
2022/06/28 10:32:40;;;;;;;6.70;5.50;;;;;;;33.88;34.59;99197.66;5033328;28;20620;-89
2022/06/28 10:35:06;;;;;;;6.90;5.68;;;;;;;33.36;35.04;99063.06;5057689;28;20200;-88
2022/06/28 10:37:32;;;;;;;6.80;5.20;;;;;;;32.73;34.20;98913.44;5035982;28;20197;-89
2022/06/28 10:40:22;;;;;;;6.82;5.38;;;;;;;35.37;33.25;99314.59;5036227;28;20192;-87
2022/06/28 10:42:53;;;;;;;6.45;5.53;;;;;;;33.75;33.23;99032.03;5037975;28;20181;-90
2022/06/28 10:45:21;;;;;;;6.72;5.07;;;;;;;34.67;34.72;99218.63;5055962;28;20547;-92
2022/06/28 10:48:11;;;;;;;6.88;5.65;;;;;;;34.86;34.71;99302.66;5052125;28;20290;-85
2022/06/28 10:51:00;;;;;;;7.30;5.28;;;;;;;33.69;35.32;99158.44;5051946;28;20189;-88
2022/06/28 10:53:26;;;;;;;9.02;5.63;;;;;;;34.53;35.38;99305.31;5043781;28;20186;-91
2022/06/28 10:56:10;;;;;;;6.60;5.22;;;;;;;34.78;35.16;99297.78;5044529;28;20197;-90
2022/06/28 10:58:56;;;;;;;7.32;5.30;;;;;;;33.06;33.86;98999.97;5052087;28;20232;-89
2022/06/28 11:01:40;;;;;;;8.13;5.18;;;;;;;35.04;34.53;99295.47;5051621;28;20185;-88
2022/06/28 11:04:12;;;;;;;6.32;5.60;;;;;;;34.80;34.79;99298.59;5054458;28;20241;-91
2022/06/28 11:06:42;;;;;;;6.05;4.90;;;;;;;32.56;34.64;98965.91;5055543;28;20615;-92
2022/06/28 11:09:17;;;;;;;6.80;5.40;;;;;;;34.22;35.06;99292.19;5064884;28;20237;-88
2022/06/28 11:12:07;;;;;;;7.50;5.22;;;;;;;34.55;34.99;99292.13;5062674;28;20197;-86
2022/06/28 11:14:43;;;;;;;7.10;5.28;;;;;;;32.60;35.08;99004.16;5036905;28;20686;-89
2022/06/28 11:17:39;;;;;;;6.75;5.18;;;;;;;32.98;35.10;99067.72;5032526;28;20181;-87
2022/06/28 11:20:19;;;;;;;8.15;6.82;;;;;;;34.16;35.56;99274.13;5049791;28;20355;-88
2022/06/28 11:22:51;;;;;;;6.55;5.35;;;;;;;32.59;35.90;99073.25;5055476;28;20177;-87
2022/06/28 11:25:19;;;;;;;10.68;6.05;;;;;;;32.27;36.62;99045.16;5034153;28;20657;-88
2022/06/28 11:27:53;;;;;;;6.97;5.65;;;;;;;33.36;37.11;99288.81;5034127;28;20225;-89
2022/06/28 11:30:29;;;;;;;8.82;5.40;;;;;;;31.97;36.36;99009.06;5051121;28;20191;-86
2022/06/28 11:32:56;;;;;;;8.55;5.72;;;;;;;34.02;35.08;99251.19;5034995;28;20278;-88
2022/06/28 11:35:28;;;;;;;7.63;6.35;;;;;;;33.15;35.38;99023.94;5033784;28;20236;-86
2022/06/28 11:37:56;;;;;;;7.63;6.88;;;;;;;33.77;34.80;99087.94;5068912;28;20239;-89
2022/06/28 11:40:40;;;;;;;8.55;6.60;;;;;;;35.05;33.90;99192.75;5055581;28;20189;-86
2022/06/28 11:43:08;;;;;;;7.28;5.70;;;;;;;35.08;32.58;99118.84;5047610;28;20235;-88